createdAt,value
2023-02-09T00:00:36.496Z,19.80
2023-02-09T00:01:36.323Z,20.70
2023-02-09T00:02:36.228Z,18.90
2023-02-09T00:03:36.245Z,17.60
2023-02-09T00:04:36.208Z,17.50
2023-02-09T00:05:36.194Z,18.50
2023-02-09T00:06:36.201Z,19.50
2023-02-09T00:07:36.160Z,19.80
2023-02-09T00:08:36.167Z,19.50
2023-02-09T00:09:36.267Z,18.10
2023-02-09T00:10:36.194Z,19.70
2023-02-09T00:11:36.117Z,18.90
2023-02-09T00:12:36.140Z,19.80
2023-02-09T00:13:36.082Z,17.90
2023-02-09T00:14:36.142Z,18.20
2023-02-09T00:15:36.058Z,19.00
2023-02-09T00:16:36.177Z,16.70
2023-02-09T00:17:36.328Z,18.30
2023-02-09T00:18:36.048Z,17.30
2023-02-09T00:19:36.029Z,18.00
2023-02-09T00:20:36.027Z,18.70
2023-02-09T00:21:36.091Z,17.20
2023-02-09T00:22:35.995Z,17.10
2023-02-09T00:23:36.018Z,17.30
2023-02-09T00:24:35.966Z,16.60
2023-02-09T00:25:35.975Z,15.90
2023-02-09T00:26:35.954Z,15.80
2023-02-09T00:27:36.026Z,16.70
2023-02-09T00:28:35.924Z,17.10
2023-02-09T00:29:35.924Z,16.60
2023-02-09T00:30:36.017Z,15.90
2023-02-09T00:31:35.974Z,16.80
2023-02-09T00:32:35.908Z,16.60
2023-02-09T00:33:35.914Z,16.30
2023-02-09T00:34:36.122Z,15.50
2023-02-09T00:35:35.875Z,16.20
2023-02-09T00:36:35.838Z,15.80
2023-02-09T00:37:35.856Z,16.10
2023-02-09T00:38:35.820Z,15.70
2023-02-09T00:39:35.830Z,15.60
2023-02-09T00:40:35.820Z,15.30
2023-02-09T00:41:35.804Z,13.80
2023-02-09T00:42:35.762Z,14.40
2023-02-09T00:43:35.792Z,14.00
2023-02-09T00:44:35.769Z,14.10
2023-02-09T00:45:35.794Z,13.90
2023-02-09T00:46:35.730Z,14.10
2023-02-09T00:47:35.728Z,14.80
2023-02-09T00:48:35.720Z,14.90
2023-02-09T00:49:35.715Z,14.10
2023-02-09T00:50:35.670Z,13.90
2023-02-09T00:51:35.694Z,13.40
2023-02-09T00:52:35.690Z,13.20
2023-02-09T00:53:35.682Z,12.30
2023-02-09T00:54:35.674Z,13.10
2023-02-09T00:55:35.678Z,12.90
2023-02-09T00:56:35.663Z,12.20
2023-02-09T00:57:35.680Z,13.10
2023-02-09T00:58:35.601Z,12.30
2023-02-09T00:59:35.682Z,12.00
2023-02-09T01:00:35.566Z,12.30
2023-02-09T01:01:36.039Z,13.50
2023-02-09T01:02:36.028Z,13.00
2023-02-09T01:03:35.575Z,14.30
2023-02-09T01:04:35.556Z,13.10
2023-02-09T01:05:35.550Z,13.30
2023-02-09T01:06:35.521Z,12.70
2023-02-09T01:07:35.542Z,12.70
2023-02-09T01:08:35.504Z,13.20
2023-02-09T01:09:35.487Z,14.10
2023-02-09T01:10:35.480Z,14.40
2023-02-09T01:11:35.488Z,14.30
2023-02-09T01:12:35.439Z,14.80
2023-02-09T01:13:35.453Z,14.10
2023-02-09T01:14:35.428Z,14.20
2023-02-09T01:15:35.449Z,12.80
2023-02-09T01:16:35.449Z,12.60
2023-02-09T01:17:35.423Z,13.30
2023-02-09T01:18:35.361Z,13.40
2023-02-09T01:19:35.400Z,14.50
2023-02-09T01:20:35.331Z,13.10
2023-02-09T01:21:35.425Z,14.40
2023-02-09T01:22:35.349Z,12.30
2023-02-09T01:23:35.407Z,13.90
2023-02-09T01:24:35.290Z,12.60
2023-02-09T01:25:35.328Z,12.90
2023-02-09T01:26:35.269Z,13.60
2023-02-09T01:27:35.298Z,13.50
2023-02-09T01:28:35.292Z,12.80
2023-02-09T01:29:35.273Z,12.30
2023-02-09T01:30:35.301Z,13.00
2023-02-09T01:31:35.321Z,12.80
2023-02-09T01:32:35.234Z,12.10
2023-02-09T01:33:35.271Z,12.70
2023-02-09T01:34:35.188Z,12.50
2023-02-09T01:35:35.222Z,12.50
2023-02-09T01:36:35.176Z,12.70
2023-02-09T01:37:35.192Z,12.80
2023-02-09T01:38:35.151Z,12.80
2023-02-09T01:39:35.188Z,13.50
2023-02-09T01:40:35.125Z,12.50
2023-02-09T01:41:35.136Z,12.90
2023-02-09T01:42:35.117Z,13.50
2023-02-09T01:43:35.118Z,12.20
2023-02-09T01:44:35.098Z,10.70
2023-02-09T01:45:35.201Z,11.10
2023-02-09T01:46:35.095Z,12.20
2023-02-09T01:47:35.089Z,12.50
2023-02-09T01:48:35.031Z,12.20
2023-02-09T01:49:35.067Z,12.70
2023-02-09T01:50:35.073Z,13.40
2023-02-09T01:51:35.037Z,12.10
2023-02-09T01:52:34.988Z,12.60
2023-02-09T01:53:35.033Z,13.60
2023-02-09T01:54:35.022Z,12.70
2023-02-09T01:55:34.989Z,12.50
2023-02-09T01:56:35.167Z,12.10
2023-02-09T01:57:34.968Z,12.80
2023-02-09T01:58:34.946Z,12.40
2023-02-09T01:59:34.947Z,12.70
2023-02-09T02:00:34.915Z,12.30
2023-02-09T02:01:35.034Z,12.60
2023-02-09T02:02:34.948Z,12.90
2023-02-09T02:03:34.895Z,12.20
2023-02-09T02:04:34.860Z,12.20
2023-02-09T02:05:34.937Z,11.60
2023-02-09T02:06:34.850Z,11.80
2023-02-09T02:07:34.865Z,11.80
2023-02-09T02:08:34.813Z,12.10
2023-02-09T02:09:34.870Z,12.40
2023-02-09T02:10:34.809Z,12.60
2023-02-09T02:11:34.803Z,11.30
2023-02-09T02:12:34.776Z,11.70
2023-02-09T02:13:34.801Z,11.40
2023-02-09T02:14:34.746Z,10.20
2023-02-09T02:15:34.792Z,11.40
2023-02-09T02:16:34.768Z,11.70
2023-02-09T02:17:34.743Z,12.30
2023-02-09T02:18:34.710Z,10.90
2023-02-09T02:19:34.720Z,12.40
2023-02-09T02:20:34.678Z,12.00
2023-02-09T02:21:34.708Z,11.10
2023-02-09T02:22:34.657Z,11.40
2023-02-09T02:23:34.870Z,10.90
2023-02-09T02:24:34.658Z,12.40
2023-02-09T02:25:34.644Z,12.90
2023-02-09T02:26:34.674Z,12.20
2023-02-09T02:27:34.639Z,11.20
2023-02-09T02:28:34.586Z,11.80
2023-02-09T02:29:35.194Z,11.40
2023-02-09T02:30:34.602Z,11.60
2023-02-09T02:31:34.667Z,11.60
2023-02-09T02:32:34.547Z,11.70
2023-02-09T02:33:34.598Z,11.70
2023-02-09T02:34:34.549Z,11.60
2023-02-09T02:35:34.547Z,11.10
2023-02-09T02:36:34.504Z,11.40
2023-02-09T02:37:34.535Z,10.80
2023-02-09T02:38:34.488Z,11.40
2023-02-09T02:39:34.497Z,11.10
2023-02-09T02:40:34.459Z,10.90
2023-02-09T02:41:34.471Z,11.00
2023-02-09T02:42:34.544Z,9.80
2023-02-09T02:43:34.500Z,9.50
2023-02-09T02:44:34.892Z,10.90
2023-02-09T02:45:34.422Z,10.90
2023-02-09T02:46:34.437Z,11.00
2023-02-09T02:47:34.417Z,10.50
2023-02-09T02:48:34.400Z,10.50
2023-02-09T02:49:34.395Z,9.90
2023-02-09T02:50:34.390Z,10.70
2023-02-09T02:51:34.375Z,10.70
2023-02-09T02:52:34.372Z,10.30
2023-02-09T02:53:34.368Z,10.20
2023-02-09T02:54:34.352Z,10.20
2023-02-09T02:55:34.332Z,10.40
2023-02-09T02:56:34.286Z,10.70
2023-02-09T02:57:34.329Z,10.90
2023-02-09T02:58:34.301Z,10.10
2023-02-09T02:59:34.298Z,10.20
2023-02-09T03:00:34.260Z,9.70
2023-02-09T03:01:34.359Z,10.60
2023-02-09T03:02:34.239Z,9.90
2023-02-09T03:03:34.247Z,11.10
2023-02-09T03:04:34.353Z,10.40
2023-02-09T03:05:34.294Z,10.60
2023-02-09T03:06:34.188Z,11.00
2023-02-09T03:07:34.214Z,10.90
2023-02-09T03:08:34.160Z,10.50
2023-02-09T03:09:34.174Z,10.50
2023-02-09T03:10:34.151Z,11.80
2023-02-09T03:11:34.147Z,11.20
2023-02-09T03:12:34.137Z,11.30
2023-02-09T03:13:34.126Z,11.10
2023-02-09T03:14:34.122Z,10.50
2023-02-09T03:15:34.120Z,11.20
2023-02-09T03:16:34.074Z,11.70
2023-02-09T03:17:34.086Z,11.00
2023-02-09T03:18:34.446Z,10.90
2023-02-09T03:19:34.243Z,11.20
2023-02-09T03:20:34.050Z,11.80
2023-02-09T03:21:34.055Z,11.10
2023-02-09T03:22:34.017Z,10.70
2023-02-09T03:23:34.031Z,11.50
2023-02-09T03:24:33.995Z,11.90
2023-02-09T03:25:34.066Z,11.40
2023-02-09T03:26:33.988Z,12.10
2023-02-09T03:27:33.972Z,11.70
2023-02-09T03:28:34.021Z,11.90
2023-02-09T03:29:33.958Z,11.20
2023-02-09T03:30:33.996Z,11.70
2023-02-09T03:31:33.967Z,11.60
2023-02-09T03:32:33.903Z,12.40
2023-02-09T03:33:33.908Z,11.80
2023-02-09T03:34:33.873Z,11.60
2023-02-09T03:35:33.901Z,11.40
2023-02-09T03:36:33.862Z,11.20
2023-02-09T03:37:33.913Z,11.80
2023-02-09T03:38:33.831Z,11.80
2023-02-09T03:39:33.856Z,11.20
2023-02-09T03:40:33.820Z,12.10
2023-02-09T03:41:33.876Z,10.30
2023-02-09T03:42:33.790Z,10.30
2023-02-09T03:43:33.828Z,10.40
2023-02-09T03:44:33.775Z,11.50
2023-02-09T03:45:34.409Z,10.70
2023-02-09T03:46:33.843Z,11.20
2023-02-09T03:47:33.761Z,10.40
2023-02-09T03:48:33.718Z,10.70
2023-02-09T03:49:33.733Z,10.00
2023-02-09T03:50:33.713Z,10.20
2023-02-09T03:51:33.751Z,10.50
2023-02-09T03:52:33.713Z,10.80
2023-02-09T03:53:33.762Z,11.20
2023-02-09T03:54:33.683Z,10.80
2023-02-09T03:55:33.734Z,10.70
2023-02-09T03:56:33.642Z,11.80
2023-02-09T03:57:33.868Z,11.10
2023-02-09T03:58:33.643Z,10.50
2023-02-09T03:59:33.621Z,10.80
2023-02-09T04:00:33.643Z,11.80
2023-02-09T04:01:33.613Z,10.20
2023-02-09T04:02:33.639Z,10.80
2023-02-09T04:03:33.603Z,10.10
2023-02-09T04:04:33.540Z,10.70
2023-02-09T04:05:33.580Z,10.20
2023-02-09T04:06:33.525Z,10.40
2023-02-09T04:07:33.544Z,11.20
2023-02-09T04:08:33.516Z,11.40
2023-02-09T04:09:33.518Z,11.60
2023-02-09T04:10:33.483Z,10.40
2023-02-09T04:11:33.496Z,10.80
2023-02-09T04:12:33.453Z,10.50
2023-02-09T04:13:33.542Z,10.40
2023-02-09T04:14:33.478Z,10.20
2023-02-09T04:15:33.481Z,10.80
2023-02-09T04:16:33.531Z,10.60
2023-02-09T04:17:33.430Z,10.60
2023-02-09T04:18:33.390Z,11.00
2023-02-09T04:19:33.442Z,10.60
2023-02-09T04:20:34.656Z,10.90
2023-02-09T04:21:33.448Z,11.00
2023-02-09T04:22:33.337Z,11.50
2023-02-09T04:23:33.367Z,11.00
2023-02-09T04:24:33.342Z,10.90
2023-02-09T04:25:33.452Z,10.70
2023-02-09T04:26:33.455Z,11.20
2023-02-09T04:27:33.328Z,10.60
2023-02-09T04:28:33.308Z,10.50
2023-02-09T04:29:33.440Z,9.70
2023-02-09T04:30:33.299Z,9.10
2023-02-09T04:31:33.324Z,10.20
2023-02-09T04:32:33.280Z,10.70
2023-02-09T04:33:33.248Z,9.90
2023-02-09T04:34:33.216Z,10.10
2023-02-09T04:35:33.227Z,10.80
2023-02-09T04:36:33.217Z,10.20
2023-02-09T04:37:33.186Z,10.70
2023-02-09T04:38:33.215Z,10.50
2023-02-09T04:39:33.201Z,10.30
2023-02-09T04:40:33.478Z,10.80
2023-02-09T04:41:33.160Z,10.40
2023-02-09T04:42:33.203Z,9.80
2023-02-09T04:43:33.130Z,10.10
2023-02-09T04:44:33.160Z,10.70
2023-02-09T04:45:33.155Z,9.90
2023-02-09T04:46:33.155Z,9.90
2023-02-09T04:47:33.137Z,10.30
2023-02-09T04:48:33.412Z,10.10
2023-02-09T04:49:33.059Z,10.60
2023-02-09T04:50:33.096Z,9.60
2023-02-09T04:51:33.167Z,10.10
2023-02-09T04:52:33.164Z,9.40
2023-02-09T04:53:33.030Z,10.70
2023-02-09T04:54:33.058Z,10.60
2023-02-09T04:55:33.127Z,10.40
2023-02-09T04:56:33.050Z,10.50
2023-02-09T04:57:32.974Z,10.60
2023-02-09T04:58:33.041Z,10.20
2023-02-09T04:59:33.029Z,9.80
2023-02-09T05:00:33.015Z,10.60
2023-02-09T05:01:33.153Z,10.60
2023-02-09T05:02:33.048Z,10.10
2023-02-09T05:03:33.000Z,10.20
2023-02-09T05:04:32.968Z,10.40
2023-02-09T05:05:32.924Z,10.30
2023-02-09T05:06:33.217Z,9.90
2023-02-09T05:07:32.962Z,10.80
2023-02-09T05:08:32.967Z,10.60
2023-02-09T05:09:32.894Z,10.10
2023-02-09T05:10:32.854Z,8.90
2023-02-09T05:11:32.843Z,10.50
2023-02-09T05:12:32.861Z,9.40
2023-02-09T05:13:32.833Z,10.70
2023-02-09T05:14:32.828Z,9.80
2023-02-09T05:15:32.796Z,10.90
2023-02-09T05:16:32.852Z,10.40
2023-02-09T05:17:32.764Z,9.40
2023-02-09T05:18:32.859Z,10.50
2023-02-09T05:19:32.765Z,9.70
2023-02-09T05:20:32.951Z,9.20
2023-02-09T05:21:32.721Z,10.50
2023-02-09T05:22:32.733Z,11.20
2023-02-09T05:23:32.714Z,10.00
2023-02-09T05:24:35.372Z,10.60
2023-02-09T05:25:32.702Z,9.70
2023-02-09T05:26:32.681Z,10.30
2023-02-09T05:27:32.704Z,9.30
2023-02-09T05:28:33.286Z,10.70
2023-02-09T05:29:32.631Z,10.00
2023-02-09T05:30:32.639Z,10.20
2023-02-09T05:31:32.713Z,10.00
2023-02-09T05:32:32.686Z,10.70
2023-02-09T05:33:32.606Z,11.00
2023-02-09T05:34:32.604Z,10.50
2023-02-09T05:35:32.572Z,10.80
2023-02-09T05:36:32.629Z,10.20
2023-02-09T05:37:32.553Z,10.50
2023-02-09T05:38:32.570Z,10.10
2023-02-09T05:39:32.532Z,11.10
2023-02-09T05:40:32.562Z,10.30
2023-02-09T05:41:32.670Z,10.70
2023-02-09T05:42:32.508Z,10.50
2023-02-09T05:43:32.488Z,10.60
2023-02-09T05:44:32.602Z,10.60
2023-02-09T05:45:32.455Z,10.30
2023-02-09T05:46:32.492Z,10.70
2023-02-09T05:47:32.441Z,10.80
2023-02-09T05:48:32.519Z,10.20
2023-02-09T05:49:32.467Z,10.70
2023-02-09T05:50:32.430Z,10.60
2023-02-09T05:51:32.409Z,10.50
2023-02-09T05:52:32.405Z,11.00
2023-02-09T05:53:32.372Z,10.70
2023-02-09T05:54:32.506Z,10.80
2023-02-09T05:55:32.361Z,10.50
2023-02-09T05:56:32.386Z,10.60
2023-02-09T05:57:32.343Z,10.70
2023-02-09T05:58:32.375Z,10.30
2023-02-09T05:59:32.314Z,11.10
2023-02-09T06:00:32.322Z,11.20
2023-02-09T06:01:32.415Z,10.60
2023-02-09T06:02:32.391Z,11.80
2023-02-09T06:03:32.339Z,11.40
2023-02-09T06:04:32.292Z,10.80
2023-02-09T06:05:32.402Z,10.40
2023-02-09T06:06:32.267Z,10.90
2023-02-09T06:07:32.224Z,11.50
2023-02-09T06:08:32.221Z,11.10
2023-02-09T06:09:32.205Z,11.20
2023-02-09T06:10:32.221Z,11.60
2023-02-09T06:11:32.201Z,10.90
2023-02-09T06:12:32.475Z,10.60
2023-02-09T06:13:32.168Z,11.40
2023-02-09T06:14:32.189Z,11.40
2023-02-09T06:15:32.182Z,10.80
2023-02-09T06:16:32.133Z,12.30
2023-02-09T06:17:32.116Z,11.60
2023-02-09T06:18:32.119Z,11.60
2023-02-09T06:19:32.148Z,11.20
2023-02-09T06:20:32.196Z,11.30
2023-02-09T06:21:32.084Z,11.70
2023-02-09T06:22:32.216Z,11.60
2023-02-09T06:23:33.905Z,11.50
2023-02-09T06:24:32.067Z,12.60
2023-02-09T06:25:32.024Z,11.90
2023-02-09T06:26:32.038Z,12.10
2023-02-09T06:27:32.013Z,14.00
2023-02-09T06:28:32.125Z,12.80
2023-02-09T06:29:32.006Z,12.60
2023-02-09T06:30:32.958Z,11.80
2023-02-09T06:31:32.072Z,13.70
2023-02-09T06:32:32.011Z,13.20
2023-02-09T06:33:31.914Z,12.50
2023-02-09T06:34:31.988Z,12.70
2023-02-09T06:35:41.256Z,14.00
2023-02-09T06:36:31.934Z,13.30
2023-02-09T06:37:31.883Z,12.80
2023-02-09T06:38:31.893Z,13.40
2023-02-09T06:39:31.874Z,12.80
2023-02-09T06:40:31.888Z,13.60
2023-02-09T06:41:31.884Z,14.00
2023-02-09T06:42:31.868Z,12.70
2023-02-09T06:43:31.918Z,13.80
2023-02-09T06:44:31.849Z,12.60
2023-02-09T06:45:32.366Z,14.50
2023-02-09T06:46:31.867Z,13.60
2023-02-09T06:47:31.791Z,12.90
2023-02-09T06:48:32.109Z,14.70
2023-02-09T06:49:31.765Z,14.80
2023-02-09T06:50:31.872Z,14.50
2023-02-09T06:51:31.743Z,15.00
2023-02-09T06:52:31.742Z,15.40
2023-02-09T06:53:31.725Z,16.00
2023-02-09T06:54:31.824Z,16.10
2023-02-09T06:55:31.719Z,15.50
2023-02-09T06:56:31.706Z,14.40
2023-02-09T06:57:31.682Z,16.20
2023-02-09T06:58:31.682Z,15.60
2023-02-09T06:59:31.669Z,15.80
2023-02-09T07:00:31.904Z,15.40
2023-02-09T07:01:31.670Z,16.00
2023-02-09T07:02:31.666Z,16.30
2023-02-09T07:03:31.834Z,15.50
2023-02-09T07:04:31.839Z,15.70
2023-02-09T07:05:31.857Z,16.20
2023-02-09T07:06:31.623Z,16.70
2023-02-09T07:07:32.364Z,16.20
2023-02-09T07:08:31.601Z,17.20
2023-02-09T07:09:31.570Z,16.70
2023-02-09T07:10:31.588Z,17.50
2023-02-09T07:11:31.530Z,17.40
2023-02-09T07:12:31.540Z,16.70
2023-02-09T07:13:31.507Z,15.00
2023-02-09T07:14:31.523Z,13.50
2023-02-09T07:15:31.505Z,14.70
2023-02-09T07:16:31.499Z,14.40
2023-02-09T07:17:31.457Z,16.30
2023-02-09T07:18:31.496Z,16.40
2023-02-09T07:19:31.465Z,13.00
2023-02-09T07:20:31.447Z,13.00
2023-02-09T07:21:31.460Z,13.30
2023-02-09T07:22:31.429Z,13.50
2023-02-09T07:23:32.176Z,13.30
2023-02-09T07:24:31.469Z,12.50
2023-02-09T07:25:32.184Z,15.00
2023-02-09T07:26:31.395Z,14.60
2023-02-09T07:27:31.344Z,14.60
2023-02-09T07:28:31.414Z,15.40
2023-02-09T07:29:31.350Z,15.70
2023-02-09T07:30:32.273Z,16.70
2023-02-09T07:31:31.473Z,16.20
2023-02-09T07:32:31.354Z,16.60
2023-02-09T07:33:31.285Z,16.50
2023-02-09T07:34:31.453Z,17.40
2023-02-09T07:35:32.034Z,16.30
2023-02-09T07:36:32.212Z,17.10
2023-02-09T07:37:31.283Z,16.80
2023-02-09T07:38:31.273Z,16.10
2023-02-09T07:39:32.162Z,16.70
2023-02-09T07:40:31.251Z,16.30
2023-02-09T07:41:31.773Z,17.60
2023-02-09T07:42:31.209Z,19.60
2023-02-09T07:43:31.192Z,19.90
2023-02-09T07:44:31.935Z,19.00
2023-02-09T07:45:31.173Z,17.60
2023-02-09T07:46:31.265Z,17.90
2023-02-09T07:47:31.127Z,19.00
2023-02-09T07:48:31.158Z,19.10
2023-02-09T07:49:31.143Z,18.10
2023-02-09T07:50:31.873Z,17.80
2023-02-09T07:51:34.235Z,18.30
2023-02-09T07:52:31.101Z,18.20
2023-02-09T07:53:31.067Z,17.70
2023-02-09T07:54:31.113Z,17.10
2023-02-09T07:55:31.058Z,16.90
2023-02-09T07:56:31.124Z,17.10
2023-02-09T07:57:31.017Z,16.30
2023-02-09T07:58:31.047Z,17.10
2023-02-09T07:59:31.014Z,17.10
2023-02-09T08:00:31.070Z,15.70
2023-02-09T08:01:30.984Z,16.20
2023-02-09T08:02:31.025Z,15.50
2023-02-09T08:03:30.955Z,16.20
2023-02-09T08:04:30.984Z,15.80
2023-02-09T08:05:31.217Z,16.20
2023-02-09T08:06:41.423Z,18.20
2023-02-09T08:07:31.928Z,18.50
2023-02-09T08:08:30.923Z,18.10
2023-02-09T08:09:30.905Z,17.90
2023-02-09T08:10:31.076Z,17.20
2023-02-09T08:11:30.882Z,17.20
2023-02-09T08:12:30.882Z,16.60
2023-02-09T08:13:30.862Z,16.00
2023-02-09T08:14:30.863Z,16.30
2023-02-09T08:15:30.925Z,16.80
2023-02-09T08:16:30.894Z,16.70
2023-02-09T08:17:30.815Z,15.90
2023-02-09T08:18:31.717Z,16.80
2023-02-09T08:19:30.860Z,16.00
2023-02-09T08:20:30.869Z,18.80
2023-02-09T08:21:30.832Z,18.30
2023-02-09T08:22:30.799Z,18.30
2023-02-09T08:23:30.779Z,18.20
2023-02-09T08:24:31.158Z,17.90
2023-02-09T08:25:30.957Z,18.70
2023-02-09T08:26:30.955Z,18.90
2023-02-09T08:27:30.692Z,19.10
2023-02-09T08:28:43.272Z,18.30
2023-02-09T08:29:31.832Z,18.80
2023-02-09T08:30:30.710Z,18.20
2023-02-09T08:31:31.096Z,17.60
2023-02-09T08:32:30.990Z,17.10
2023-02-09T08:33:30.639Z,17.80
2023-02-09T08:34:30.675Z,18.70
2023-02-09T08:35:30.902Z,20.80
2023-02-09T08:36:30.633Z,19.80
2023-02-09T08:37:30.648Z,19.60
2023-02-09T08:38:30.602Z,19.20
2023-02-09T08:39:30.613Z,19.40
2023-02-09T08:40:31.411Z,19.30
2023-02-09T08:41:30.549Z,19.10
2023-02-09T08:42:30.561Z,19.00
2023-02-09T08:43:30.547Z,18.50
2023-02-09T08:44:30.608Z,20.00
2023-02-09T08:45:30.699Z,18.90
2023-02-09T08:46:31.248Z,20.30
2023-02-09T08:47:30.481Z,18.60
2023-02-09T08:48:30.495Z,18.20
2023-02-09T08:49:30.475Z,20.70
2023-02-09T08:50:30.481Z,19.30
2023-02-09T08:51:30.518Z,20.80
2023-02-09T08:52:30.429Z,19.20
2023-02-09T08:53:30.440Z,18.20
2023-02-09T08:54:30.410Z,18.40
2023-02-09T08:55:31.257Z,18.40
2023-02-09T08:56:30.430Z,19.10
2023-02-09T08:57:43.167Z,18.90
2023-02-09T08:58:31.360Z,20.10
2023-02-09T08:59:30.490Z,19.70
2023-02-09T09:00:30.349Z,18.70
2023-02-09T09:01:30.442Z,19.40
2023-02-09T09:02:31.120Z,18.40
2023-02-09T09:03:30.382Z,19.30
2023-02-09T09:04:30.324Z,19.50
2023-02-09T09:05:32.099Z,19.90
2023-02-09T09:06:30.509Z,20.00
2023-02-09T09:07:30.293Z,18.60
2023-02-09T09:08:30.316Z,19.40
2023-02-09T09:09:30.267Z,19.00
2023-02-09T09:10:30.283Z,18.80
2023-02-09T09:11:30.248Z,18.00
2023-02-09T09:12:30.217Z,18.50
2023-02-09T09:13:30.249Z,18.70
2023-02-09T09:14:30.191Z,18.90
2023-02-09T09:15:30.197Z,18.00
2023-02-09T09:16:30.223Z,18.20
2023-02-09T09:17:30.182Z,18.30
2023-02-09T09:18:30.138Z,17.90
2023-02-09T09:19:30.148Z,18.80
2023-02-09T09:20:30.126Z,19.20
2023-02-09T09:21:30.136Z,21.30
2023-02-09T09:22:30.103Z,21.60
2023-02-09T09:23:30.110Z,18.70
2023-02-09T09:24:30.077Z,15.50
2023-02-09T09:25:30.227Z,17.00
2023-02-09T09:26:30.387Z,18.00
2023-02-09T09:27:30.070Z,15.50
2023-02-09T09:28:30.116Z,15.40
2023-02-09T09:29:30.046Z,13.70
2023-02-09T09:30:30.053Z,13.70
2023-02-09T09:31:30.152Z,14.50
2023-02-09T09:32:30.143Z,15.50
2023-02-09T09:33:30.007Z,16.20
2023-02-09T09:34:30.003Z,15.10
2023-02-09T09:35:30.780Z,14.50
2023-02-09T09:36:30.318Z,13.90
2023-02-09T09:37:30.031Z,14.20
2023-02-09T09:38:29.930Z,13.90
2023-02-09T09:39:29.926Z,13.80
2023-02-09T09:40:29.946Z,13.50
2023-02-09T09:41:29.923Z,14.00
2023-02-09T09:42:29.877Z,13.60
2023-02-09T09:43:29.890Z,12.50
2023-02-09T09:44:29.866Z,12.90
2023-02-09T09:45:29.881Z,12.80
2023-02-09T09:46:29.921Z,13.30
2023-02-09T09:47:30.625Z,13.50
2023-02-09T09:48:30.536Z,14.00
2023-02-09T09:49:29.827Z,13.30
2023-02-09T09:50:29.799Z,12.70
2023-02-09T09:51:29.816Z,13.20
2023-02-09T09:52:30.114Z,13.50
2023-02-09T09:53:30.583Z,13.60
2023-02-09T09:54:29.806Z,13.40
2023-02-09T09:55:29.957Z,13.30
2023-02-09T09:56:29.738Z,13.40
2023-02-09T09:57:29.811Z,13.40
2023-02-09T09:58:29.702Z,13.70
2023-02-09T09:59:29.763Z,13.10
2023-02-09T10:00:29.672Z,13.60
2023-02-09T10:01:29.837Z,13.10
2023-02-09T10:02:29.675Z,13.10
2023-02-09T10:03:29.683Z,12.80
2023-02-09T10:04:29.731Z,12.90
2023-02-09T10:05:29.681Z,12.70
2023-02-09T10:06:29.620Z,13.00
2023-02-09T10:07:30.516Z,13.90
2023-02-09T10:08:29.655Z,13.50
2023-02-09T10:09:29.631Z,13.20
2023-02-09T10:10:29.702Z,12.30
2023-02-09T10:11:29.613Z,12.20
2023-02-09T10:12:29.533Z,13.00
2023-02-09T10:13:30.447Z,13.20
2023-02-09T10:14:29.978Z,13.00
2023-02-09T10:15:30.269Z,12.70
2023-02-09T10:16:29.795Z,12.80
2023-02-09T10:17:29.509Z,12.30
2023-02-09T10:18:29.468Z,12.60
2023-02-09T10:19:29.585Z,12.70
2023-02-09T10:20:29.673Z,13.60
2023-02-09T10:21:29.693Z,13.30
2023-02-09T10:22:29.418Z,12.90
2023-02-09T10:23:29.488Z,12.90
2023-02-09T10:24:29.520Z,13.80
2023-02-09T10:25:29.490Z,13.40
2023-02-09T10:26:29.420Z,13.20
2023-02-09T10:27:29.453Z,13.60
2023-02-09T10:28:29.416Z,12.50
2023-02-09T10:29:29.369Z,13.50
2023-02-09T10:30:29.787Z,12.90
2023-02-09T10:31:29.445Z,12.90
2023-02-09T10:32:29.324Z,13.50
2023-02-09T10:33:29.321Z,12.90
2023-02-09T10:34:30.228Z,12.70
2023-02-09T10:35:29.382Z,12.80
2023-02-09T10:36:29.305Z,11.60
2023-02-09T10:37:29.291Z,12.50
2023-02-09T10:38:30.375Z,12.80
2023-02-09T10:39:29.276Z,13.00
2023-02-09T10:40:29.214Z,13.30
2023-02-09T10:41:29.230Z,13.40
2023-02-09T10:42:29.246Z,12.90
2023-02-09T10:43:29.229Z,12.40
2023-02-09T10:44:29.207Z,12.10
2023-02-09T10:45:29.193Z,12.50
2023-02-09T10:46:29.174Z,13.00
2023-02-09T10:47:29.178Z,12.20
2023-02-09T10:48:29.944Z,12.50
2023-02-09T10:49:29.167Z,12.00
2023-02-09T10:50:29.139Z,12.60
2023-02-09T10:51:29.262Z,12.80
2023-02-09T10:52:29.098Z,11.70
2023-02-09T10:53:29.111Z,12.50
2023-02-09T10:54:29.117Z,12.20
2023-02-09T10:55:29.107Z,11.50
2023-02-09T10:56:29.085Z,12.80
2023-02-09T10:57:29.107Z,13.00
2023-02-09T10:58:29.119Z,12.00
2023-02-09T10:59:29.053Z,12.50
2023-02-09T11:00:29.070Z,12.10
2023-02-09T11:01:29.118Z,12.00
2023-02-09T11:02:28.965Z,14.40
2023-02-09T11:03:29.199Z,14.10
2023-02-09T11:04:29.027Z,12.80
2023-02-09T11:05:29.013Z,12.30
2023-02-09T11:06:28.954Z,12.20
2023-02-09T11:07:30.658Z,12.50
2023-02-09T11:08:29.393Z,12.50
2023-02-09T11:09:29.459Z,12.40
2023-02-09T11:10:28.911Z,10.90
2023-02-09T11:11:28.917Z,12.50
2023-02-09T11:12:28.883Z,13.00
2023-02-09T11:13:30.892Z,12.10
2023-02-09T11:14:28.909Z,12.60
2023-02-09T11:15:29.622Z,12.40
2023-02-09T11:16:28.862Z,11.90
2023-02-09T11:17:28.857Z,12.40
2023-02-09T11:18:28.813Z,12.70
2023-02-09T11:19:28.821Z,12.50
2023-02-09T11:20:28.918Z,12.50
2023-02-09T11:21:28.802Z,11.80
2023-02-09T11:22:29.113Z,12.10
2023-02-09T11:23:28.805Z,12.20
2023-02-09T11:24:28.741Z,11.80
2023-02-09T11:25:28.749Z,11.90
2023-02-09T11:26:28.715Z,12.30
2023-02-09T11:27:28.720Z,12.50
2023-02-09T11:28:29.700Z,12.50
2023-02-09T11:29:28.755Z,12.20
2023-02-09T11:30:28.703Z,12.10
2023-02-09T11:31:28.842Z,12.30
2023-02-09T11:32:28.643Z,11.90
2023-02-09T11:33:28.655Z,12.60
2023-02-09T11:34:28.631Z,11.20
2023-02-09T11:35:28.636Z,12.30
2023-02-09T11:36:28.601Z,11.60
2023-02-09T11:37:28.610Z,11.70
2023-02-09T11:38:28.620Z,12.70
2023-02-09T11:39:28.601Z,12.00
2023-02-09T11:40:28.576Z,11.90
2023-02-09T11:41:28.580Z,12.30
2023-02-09T11:42:28.570Z,11.70
2023-02-09T11:43:28.538Z,12.50
2023-02-09T11:44:28.500Z,11.20
2023-02-09T11:45:28.871Z,11.80
2023-02-09T11:46:28.514Z,11.80
2023-02-09T11:47:28.502Z,11.90
2023-02-09T11:48:28.461Z,12.40
2023-02-09T11:49:28.481Z,11.80
2023-02-09T11:50:28.537Z,11.70
2023-02-09T11:51:29.938Z,10.70
2023-02-09T11:52:28.467Z,12.00
2023-02-09T11:53:28.465Z,11.20
2023-02-09T11:54:28.403Z,11.90
2023-02-09T11:55:28.410Z,11.80
2023-02-09T11:56:28.597Z,12.40
2023-02-09T11:57:28.389Z,13.30
2023-02-09T11:58:28.364Z,11.00
2023-02-09T11:59:28.441Z,11.60
2023-02-09T12:00:28.342Z,11.10
2023-02-09T12:01:28.418Z,11.80
2023-02-09T12:02:28.386Z,12.20
2023-02-09T12:03:28.306Z,11.50
2023-02-09T12:04:28.418Z,12.00
2023-02-09T12:05:28.281Z,11.30
2023-02-09T12:06:28.319Z,11.50
2023-02-09T12:07:28.308Z,12.10
2023-02-09T12:08:28.251Z,11.20
2023-02-09T12:09:28.275Z,11.40
2023-02-09T12:10:28.573Z,11.20
2023-02-09T12:11:28.272Z,11.40
2023-02-09T12:12:28.182Z,11.30
2023-02-09T12:13:28.227Z,11.60
2023-02-09T12:14:28.220Z,10.90
2023-02-09T12:15:28.166Z,11.40
2023-02-09T12:16:28.245Z,10.80
2023-02-09T12:17:28.170Z,10.70
2023-02-09T12:18:28.146Z,11.40
2023-02-09T12:19:28.125Z,11.00
2023-02-09T12:20:28.086Z,10.70
2023-02-09T12:21:28.131Z,10.40
2023-02-09T12:22:28.100Z,10.80
2023-02-09T12:23:28.128Z,11.10
2023-02-09T12:24:28.055Z,10.50
2023-02-09T12:25:28.057Z,9.90
2023-02-09T12:26:28.093Z,10.00
2023-02-09T12:27:28.071Z,10.70
2023-02-09T12:28:28.049Z,10.40
2023-02-09T12:29:28.030Z,9.50
2023-02-09T12:30:28.090Z,10.30
2023-02-09T12:31:28.287Z,10.40
2023-02-09T12:32:28.016Z,9.90
2023-02-09T12:33:27.953Z,10.10
2023-02-09T12:34:28.032Z,10.20
2023-02-09T12:35:27.987Z,10.20
2023-02-09T12:36:27.926Z,10.10
2023-02-09T12:37:28.884Z,10.10
2023-02-09T12:38:27.893Z,10.20
2023-02-09T12:39:27.914Z,10.30
2023-02-09T12:40:27.918Z,10.70
2023-02-09T12:41:27.874Z,9.80
2023-02-09T12:42:27.840Z,10.10
2023-02-09T12:43:27.917Z,10.50
2023-02-09T12:44:27.801Z,10.80
2023-02-09T12:45:27.904Z,10.90
2023-02-09T12:46:27.826Z,10.40
2023-02-09T12:47:27.801Z,10.80
2023-02-09T12:48:27.750Z,10.20
2023-02-09T12:49:27.774Z,10.00
2023-02-09T12:50:27.821Z,10.40
2023-02-09T12:51:28.012Z,9.60
2023-02-09T12:52:27.702Z,10.30
2023-02-09T12:53:27.718Z,10.10